Etusivu
METAR-TAF:

METAR-TAF

Lentoasemat :

Asunción, Paraguay

Leveyspiiri: 25-16S, Pituuspiiri: 057-38W, korkeus merenpinnasta: 101 m

Tämänhetkinen sää

Tämä raportti tehtiin 46 minuuttia sitten, kello 12.30 UTC
Tuuli 12 kn idästä/koillisesta
Lämpötila 26°C
Kosteus 45%
Ilmanpaine 1008 hPa
Näkyvyys 10 km tai enemmän
ei pilviä alle 1500 m:ssä eikä cumulonimbus-pilviä

METAR: SGAS 221230Z 06012KT CAVOK 26/13 Q1008

Aika: 09:16 (13:16 UTC)

Sääennuste

Tämä raportti tehtiin 2 tuntia ja 36 minuuttia sitten, kello 10.40 UTC
Ennuste voimassa 22. päivästä klo 12 UTC - 23. päivään klo 12 UTC
Tuuli 13 kn koillisesta
Näkyvyys 10 km tai enemmän
ei pilviä alle 1500 m:ssä eikä cumulonimbus-pilviä

TAF: SGAS 221040Z 2212/2312 05013KT CAVOK TX33/2219Z TN24/2309Z

Säähavainnot ja -ennusteet yli 4000 lentoasemalta (METAR- ja TAF-raportit).

Käytössä olevat sääasemat on merkitty karttaan keltaisilla ja punaisilla pisteillä.

Aseta hiiri pisteen päälle nähdäksesi sääaseman nimen.

Klikkaa sitten nähdäksesi säähavainnot ja -ennusteet.

Kartan vaihtaminen: klikkaa mustalla rastilla varustettuja vihreitä pisteitä, niin voit zoomata sisään; viivalla varustettua vihreää pistettä, niin voit zoomata ulos tai vihreitä nuolia, niin pääset viereisille kartoille.


METAR-TAF: